Time;durP1;ratioP1;P1;durP2;ratioP2;P2;SDS_P1;SDS_P2;PMS_P1;PMS_P2;Temp;Humidity;BMP_temperature;BMP_pressure;BME280_temperature;BME280_humidity;BME280_pressure;Samples;Min_cycle;Max_cycle;Signal;HPM_P1;HPM_P2
2022/01/30 00:02:06;;;;;;;3.80;2.50;;;;;;;5.88;88.93;98314.00;130175;1268;108685;-78
2022/01/30 00:05:12;;;;;;;4.50;2.50;;;;;;;5.89;88.82;98313.13;130198;1268;108759;-78
2022/01/30 00:08:17;;;;;;;4.20;2.30;;;;;;;5.92;87.91;98322.20;130224;1268;108459;-78
2022/01/30 00:11:28;;;;;;;3.20;1.70;;;;;;;5.90;87.81;98308.64;130116;1269;108795;-77
2022/01/30 00:14:37;;;;;;;4.40;1.80;;;;;;;5.84;86.62;98319.89;130209;1268;107802;-78
2022/01/30 00:17:47;;;;;;;6.00;1.80;;;;;;;5.85;86.12;98323.31;130123;1271;107045;-78
2022/01/30 00:21:05;;;;;;;5.70;2.00;;;;;;;5.86;85.63;98320.52;130239;1268;108555;-78
2022/01/30 00:24:15;;;;;;;3.30;1.30;;;;;;;5.83;84.34;98330.23;130264;1268;108488;-78
2022/01/30 00:27:27;;;;;;;6.20;1.50;;;;;;;5.79;83.54;98329.61;130244;1268;108766;-80
2022/01/30 00:30:35;;;;;;;1.90;1.00;;;;;;;5.74;81.92;98374.31;130262;1268;108563;-77
2022/01/30 00:33:41;;;;;;;4.60;1.40;;;;;;;5.72;82.40;98350.86;130243;1268;108605;-76
2022/01/30 00:36:46;;;;;;;6.30;1.90;;;;;;;5.66;81.08;98348.47;130228;1268;109010;-76
2022/01/30 00:39:52;;;;;;;4.40;1.10;;;;;;;5.60;81.46;98363.45;130253;1268;108774;-76
2022/01/30 00:42:57;;;;;;;5.30;1.50;;;;;;;5.55;81.01;98383.95;130233;1268;108641;-78
2022/01/30 00:46:03;;;;;;;4.40;1.20;;;;;;;5.49;80.22;98389.27;130247;1268;108851;-75
2022/01/30 00:49:08;;;;;;;5.40;1.30;;;;;;;5.47;80.28;98400.67;130259;1268;108857;-77
2022/01/30 00:52:16;;;;;;;14.30;7.00;;;;;;;5.38;79.73;98398.29;130147;1268;108892;-77
2022/01/30 00:55:22;;;;;;;12.50;4.90;;;;;;;5.26;78.50;98396.44;130052;1268;108892;-75
2022/01/30 00:58:27;;;;;;;9.10;4.20;;;;;;;5.13;78.25;98408.77;130210;1268;108769;-78
2022/01/30 01:01:33;;;;;;;9.30;3.50;;;;;;;4.99;76.69;98414.66;130195;1268;108728;-78
2022/01/30 01:04:38;;;;;;;7.50;2.30;;;;;;;4.88;77.19;98411.55;130178;1268;108825;-77
2022/01/30 01:07:46;;;;;;;10.10;2.40;;;;;;;4.78;76.16;98397.10;130254;1269;108723;-76
2022/01/30 01:10:58;;;;;;;11.30;3.10;;;;;;;4.71;77.44;98398.98;130246;1268;108787;-77
2022/01/30 01:20:49;;;;;;;27.00;12.60;;;;;;;4.67;77.39;98414.05;130104;1268;108954;-77
2022/01/30 01:24:18;;;;;;;50.30;22.80;;;;;;;4.56;79.39;98405.71;130105;1268;108845;-77
2022/01/30 01:27:23;;;;;;;49.50;24.50;;;;;;;4.56;79.44;98404.65;130129;1270;107695;-76
2022/01/30 01:30:28;;;;;;;60.00;26.90;;;;;;;4.54;80.07;98407.20;130255;1268;108681;-76
2022/01/30 01:33:43;;;;;;;22.40;7.30;;;;;;;4.48;79.02;98411.52;130289;1268;108666;-77
2022/01/30 01:36:48;;;;;;;19.60;8.90;;;;;;;4.37;79.12;98403.61;130262;1268;108926;-79
2022/01/30 01:39:54;;;;;;;47.00;21.10;;;;;;;4.30;79.03;98389.90;130231;1268;107624;-79
2022/01/30 01:43:02;;;;;;;58.20;24.80;;;;;;;4.30;79.20;98383.77;130202;1268;108746;-76
2022/01/30 01:46:14;;;;;;;55.30;27.20;;;;;;;4.30;79.03;98375.98;130293;1268;108762;-76
2022/01/30 01:49:26;;;;;;;64.00;26.40;;;;;;;4.29;79.10;98371.88;130248;1268;108711;-77
2022/01/30 01:52:32;;;;;;;75.30;35.50;;;;;;;4.28;78.74;98364.47;130230;1268;108776;-77
2022/01/30 01:55:38;;;;;;;55.30;23.20;;;;;;;4.26;78.64;98349.84;130234;1268;108715;-78
2022/01/30 01:58:44;;;;;;;64.50;30.50;;;;;;;4.23;78.30;98339.27;130155;1268;108725;-77
2022/01/30 02:02:09;;;;;;;70.70;28.40;;;;;;;4.19;77.80;98337.41;130220;1270;108937;-78
2022/01/30 02:05:14;;;;;;;51.50;23.00;;;;;;;4.18;77.57;98331.87;130223;1270;107576;-77
2022/01/30 02:08:32;;;;;;;43.40;18.00;;;;;;;4.21;76.70;98328.08;130266;1268;108901;-76
2022/01/30 02:11:41;;;;;;;44.80;18.30;;;;;;;4.24;77.16;98319.31;130249;1268;108775;-76
2022/01/30 02:15:03;;;;;;;102.60;54.00;;;;;;;4.24;76.91;98311.86;130196;1268;108755;-77
2022/01/30 02:25:12;;;;;;;61.40;30.10;;;;;;;4.29;77.06;98302.36;130271;1268;108839;-77
2022/01/30 02:28:19;;;;;;;32.60;16.30;;;;;;;4.31;76.81;98298.48;130103;1269;108688;-78
2022/01/30 02:31:24;;;;;;;29.00;13.00;;;;;;;4.33;76.78;98292.95;130078;1268;108907;-77
2022/01/30 02:34:31;;;;;;;30.90;16.50;;;;;;;4.39;76.53;98286.91;130070;1268;108627;-79
2022/01/30 02:37:37;;;;;;;23.60;9.00;;;;;;;4.47;75.71;98279.70;130270;1268;108912;-78
2022/01/30 02:40:44;;;;;;;21.80;10.20;;;;;;;4.56;75.17;98277.33;130259;1268;108738;-79
2022/01/30 02:44:05;;;;;;;17.60;7.80;;;;;;;4.62;74.71;98257.00;130330;1268;108833;-76
2022/01/30 02:47:23;;;;;;;24.30;12.00;;;;;;;4.66;75.08;98251.29;130274;1268;109090;-76
2022/01/30 02:50:37;;;;;;;24.40;13.80;;;;;;;4.68;74.58;98245.41;130250;1268;108711;-76
2022/01/30 02:53:46;;;;;;;28.90;13.40;;;;;;;4.69;74.14;98247.45;130269;1267;108599;-80
2022/01/30 02:56:52;;;;;;;34.90;19.10;;;;;;;4.70;73.96;98248.73;130191;1268;108681;-78
2022/01/30 02:59:58;;;;;;;25.70;13.00;;;;;;;4.70;73.96;98246.10;130229;1268;108910;-78
2022/01/30 03:03:04;;;;;;;57.00;26.20;;;;;;;4.69;73.33;98253.43;130255;1268;107463;-79
2022/01/30 03:06:09;;;;;;;36.30;16.90;;;;;;;4.68;72.99;98235.07;130269;1268;108763;-79
2022/01/30 03:09:15;;;;;;;71.80;27.80;;;;;;;4.67;71.86;98240.79;130218;1268;108782;-76
2022/01/30 03:12:21;;;;;;;100.30;48.40;;;;;;;4.66;72.65;98233.36;130210;1268;108721;-76
2022/01/30 03:15:26;;;;;;;26.60;12.00;;;;;;;4.65;72.88;98217.20;130255;1268;108741;-75
2022/01/30 03:18:32;;;;;;;27.70;11.80;;;;;;;4.66;72.53;98224.70;130251;1268;108846;-77
2022/01/30 03:21:37;;;;;;;17.10;5.60;;;;;;;4.64;72.84;98226.09;130211;1268;109238;-78
2022/01/30 03:24:43;;;;;;;34.40;16.10;;;;;;;4.64;72.36;98234.81;130065;1269;108826;-77
2022/01/30 03:28:08;;;;;;;21.70;9.30;;;;;;;4.63;72.06;98245.44;130262;1268;109827;-78
2022/01/30 03:31:19;;;;;;;11.60;4.70;;;;;;;4.62;72.65;98250.13;130222;1268;108983;-78
2022/01/30 03:34:26;;;;;;;8.00;2.10;;;;;;;4.59;72.42;98245.90;130260;1268;108777;-77
2022/01/30 03:37:31;;;;;;;13.80;2.50;;;;;;;4.50;72.56;98219.71;130197;1268;108805;-78
2022/01/30 03:40:37;;;;;;;16.70;4.40;;;;;;;4.41;73.55;98213.43;130224;1268;107673;-78
2022/01/30 03:43:42;;;;;;;8.70;2.60;;;;;;;4.34;73.01;98208.91;130224;1268;107491;-77
2022/01/30 03:46:48;;;;;;;8.40;2.60;;;;;;;4.29;72.93;98202.96;130288;1267;108842;-79
2022/01/30 03:49:54;;;;;;;7.40;2.40;;;;;;;4.28;72.90;98191.02;130221;1270;107882;-79
2022/01/30 03:53:00;;;;;;;8.80;2.70;;;;;;;4.27;72.93;98171.61;130167;1268;108776;-81
2022/01/30 03:56:07;;;;;;;9.50;2.50;;;;;;;4.28;73.34;98183.66;130360;1268;108978;-79
2022/01/30 03:59:12;;;;;;;8.60;2.80;;;;;;;4.33;73.53;98181.19;130035;1270;108757;-79
2022/01/30 04:02:18;;;;;;;10.70;2.40;;;;;;;4.35;73.40;98188.19;130193;1268;109900;-77
2022/01/30 04:05:25;;;;;;;10.90;3.50;;;;;;;4.36;73.43;98197.63;130255;1268;108893;-78
2022/01/30 04:08:31;;;;;;;10.10;2.00;;;;;;;4.36;73.90;98195.39;130162;1268;107631;-78
2022/01/30 04:11:57;;;;;;;8.30;2.00;;;;;;;4.32;73.02;98192.70;129993;1268;108684;-78
2022/01/30 04:15:18;;;;;;;9.90;2.60;;;;;;;4.32;73.09;98199.27;130261;1268;108873;-78
2022/01/30 04:18:43;;;;;;;9.50;3.10;;;;;;;4.37;72.79;98183.46;130282;1268;108857;-79
2022/01/30 04:22:01;;;;;;;8.80;2.30;;;;;;;4.43;72.05;98183.83;130288;1268;108887;-78
2022/01/30 04:25:25;;;;;;;11.80;2.50;;;;;;;4.47;71.83;98196.94;130260;1268;108621;-77
2022/01/30 04:29:00;;;;;;;7.60;2.00;;;;;;;4.49;71.84;98183.50;130274;1268;108808;-79
2022/01/30 04:32:20;;;;;;;10.30;2.40;;;;;;;4.47;71.19;98186.54;130284;1268;108891;-77
2022/01/30 04:36:00;;;;;;;10.40;2.30;;;;;;;4.45;69.78;98190.02;130288;1268;108986;-79
2022/01/30 04:39:35;;;;;;;11.70;2.80;;;;;;;4.42;70.69;98178.02;130281;1268;108694;-77
2022/01/30 04:54:52;;;;;;;4.90;1.10;;;;;;;4.19;71.47;98149.51;130239;1268;108883;-78
2022/01/30 04:58:12;;;;;;;6.20;2.00;;;;;;;4.10;71.62;98142.27;130260;1268;108744;-76
2022/01/30 05:01:51;;;;;;;7.40;1.70;;;;;;;4.07;72.21;98151.99;130250;1268;109212;-78
2022/01/30 05:05:47;;;;;;;8.50;1.70;;;;;;;4.04;72.38;98162.52;130018;1268;108779;-78
2022/01/30 05:08:58;;;;;;;11.30;1.90;;;;;;;4.01;72.82;98153.88;130235;1268;108712;-77
2022/01/30 05:12:16;;;;;;;8.20;1.90;;;;;;;3.98;72.91;98140.08;130221;1268;108821;-78
2022/01/30 05:15:43;;;;;;;6.70;1.70;;;;;;;3.95;72.75;98147.89;130244;1268;108918;-79
2022/01/30 05:18:53;;;;;;;6.50;1.70;;;;;;;3.91;72.01;98131.86;130254;1268;107711;-78
2022/01/30 05:22:18;;;;;;;5.40;1.30;;;;;;;3.92;71.98;98126.85;130267;1268;108712;-76
2022/01/30 05:25:40;;;;;;;7.40;1.70;;;;;;;3.97;71.92;98120.52;130282;1268;108887;-76
2022/01/30 05:28:52;;;;;;;8.80;1.70;;;;;;;3.97;71.18;98130.34;130259;1268;108776;-81
2022/01/30 05:32:25;;;;;;;11.60;4.10;;;;;;;3.92;70.82;98112.52;130278;1268;109008;-81
2022/01/30 05:35:50;;;;;;;16.80;5.30;;;;;;;3.92;71.21;98107.42;130260;1267;109175;-81
2022/01/30 05:39:15;;;;;;;12.50;4.30;;;;;;;3.87;70.96;98099.49;130382;1268;108977;-79
2022/01/30 05:42:38;;;;;;;13.80;4.90;;;;;;;3.82;71.24;98114.90;130198;1268;108781;-79
2022/01/30 05:46:11;;;;;;;10.50;3.10;;;;;;;3.78;71.64;98114.03;130250;1268;108763;-80
2022/01/30 05:49:39;;;;;;;41.70;19.70;;;;;;;3.77;71.01;98111.20;130203;1270;108020;-79
2022/01/30 05:52:53;;;;;;;32.30;12.30;;;;;;;3.80;71.23;98112.77;130239;1268;108883;-80
2022/01/30 05:56:28;;;;;;;8.30;2.30;;;;;;;3.77;71.14;98110.50;130190;1268;108818;-76
2022/01/30 05:59:40;;;;;;;22.00;9.80;;;;;;;3.66;71.51;98106.83;130223;1268;109130;-76
2022/01/30 06:02:58;;;;;;;17.00;7.40;;;;;;;3.60;71.83;98099.65;130296;1268;108996;-75
2022/01/30 06:06:06;;;;;;;18.30;7.20;;;;;;;3.49;71.84;98105.27;130268;1268;109112;-76
2022/01/30 06:09:19;;;;;;;14.80;5.80;;;;;;;3.42;72.26;98110.39;130186;1268;108805;-75
2022/01/30 06:12:27;;;;;;;15.70;6.60;;;;;;;3.43;72.32;98108.91;130242;1268;108977;-75
2022/01/30 06:15:33;;;;;;;9.40;3.60;;;;;;;3.48;72.48;98110.31;130270;1268;108843;-75
2022/01/30 06:18:48;;;;;;;17.70;8.00;;;;;;;3.54;72.06;98097.60;130258;1269;108901;-73
2022/01/30 06:22:12;;;;;;;27.60;12.70;;;;;;;3.57;72.05;98094.48;130274;1268;108962;-74
2022/01/30 06:25:37;;;;;;;43.40;17.50;;;;;;;3.57;71.79;98099.06;130292;1268;106980;-77
2022/01/30 06:29:17;;;;;;;36.40;15.50;;;;;;;3.54;71.72;98089.63;129618;1274;108761;-76
2022/01/30 06:32:35;;;;;;;36.80;17.70;;;;;;;3.52;71.99;98086.66;130262;1268;108759;-75
2022/01/30 06:36:10;;;;;;;55.40;26.20;;;;;;;3.54;72.03;98082.98;130320;1268;110030;-77
2022/01/30 06:39:21;;;;;;;20.30;8.00;;;;;;;3.56;72.03;98072.59;130339;1268;108816;-76
2022/01/30 06:42:35;;;;;;;48.60;21.50;;;;;;;3.61;72.43;98070.85;130316;1267;108897;-76
2022/01/30 06:45:59;;;;;;;39.10;19.60;;;;;;;3.69;72.64;98072.96;130373;1267;109103;-74
2022/01/30 06:49:23;;;;;;;22.50;10.00;;;;;;;3.74;72.63;98065.04;130356;1267;108910;-75
2022/01/30 06:52:58;;;;;;;44.80;20.50;;;;;;;3.80;73.05;98056.48;129847;1268;108746;-76
2022/01/30 06:56:22;;;;;;;56.10;27.80;;;;;;;3.82;73.16;98053.27;130334;1267;108842;-76
2022/01/30 06:59:46;;;;;;;38.60;20.00;;;;;;;3.78;73.32;98043.90;130328;1268;107698;-74
2022/01/30 07:03:30;;;;;;;15.20;8.30;;;;;;;3.76;73.99;98052.69;130015;1271;108704;-77
2022/01/30 07:06:50;;;;;;;21.80;10.90;;;;;;;3.69;74.75;98036.94;129934;1271;109114;-80
2022/01/30 07:09:55;;;;;;;54.50;27.10;;;;;;;3.67;75.28;98028.83;130361;1267;107609;-75
2022/01/30 07:13:00;;;;;;;14.80;5.40;;;;;;;3.64;75.43;98021.84;130359;1267;108812;-74
2022/01/30 07:16:06;;;;;;;13.60;6.60;;;;;;;3.59;75.46;98012.37;130277;1268;108680;-76
2022/01/30 07:19:12;;;;;;;7.10;2.80;;;;;;;3.52;75.88;98005.15;130234;1268;108720;-73
2022/01/30 07:22:17;;;;;;;8.50;2.70;;;;;;;3.48;76.40;97998.22;130356;1267;108793;-75
2022/01/30 07:25:22;;;;;;;36.20;18.30;;;;;;;3.44;76.61;97983.65;130370;1268;108797;-74
2022/01/30 07:28:28;;;;;;;58.80;27.70;;;;;;;3.42;76.92;97959.34;130342;1268;108758;-74
2022/01/30 07:31:34;;;;;;;75.70;34.90;;;;;;;3.41;76.94;97952.84;130277;1268;108724;-73
2022/01/30 07:34:39;;;;;;;25.60;10.40;;;;;;;3.42;77.03;97954.20;130309;1268;108769;-77
2022/01/30 07:37:45;;;;;;;44.00;22.60;;;;;;;3.41;77.38;97955.54;130267;1268;108708;-75
2022/01/30 07:40:51;;;;;;;20.90;10.00;;;;;;;3.39;77.69;97960.16;130334;1267;108724;-74
2022/01/30 07:43:57;;;;;;;77.40;31.30;;;;;;;3.36;77.88;97957.13;130252;1268;108888;-74
2022/01/30 07:47:06;;;;;;;61.10;27.70;;;;;;;3.34;78.29;97970.81;130338;1267;108670;-78
2022/01/30 07:50:12;;;;;;;82.60;38.00;;;;;;;3.34;78.26;97964.70;130465;1267;108880;-82
2022/01/30 07:53:18;;;;;;;74.60;31.60;;;;;;;3.29;78.49;97973.71;130479;1268;106673;-83
2022/01/30 07:56:24;;;;;;;48.70;21.90;;;;;;;3.20;79.18;97973.25;130651;1268;108950;-79
2022/01/30 07:59:29;;;;;;;8.60;3.60;;;;;;;3.20;79.25;97979.60;130391;1265;170630;-79
2022/01/30 08:02:36;;;;;;;22.40;8.50;;;;;;;3.27;79.17;97996.77;130618;1267;109946;-81
2022/01/30 08:05:41;;;;;;;29.00;14.90;;;;;;;3.28;79.47;98000.96;130674;1267;109235;-76
2022/01/30 08:08:47;;;;;;;10.60;5.60;;;;;;;3.25;79.43;98008.57;131001;1268;108653;-80
2022/01/30 08:11:52;;;;;;;7.20;3.20;;;;;;;3.24;79.90;98024.32;130678;1267;108672;-80
2022/01/30 08:14:57;;;;;;;10.30;4.10;;;;;;;3.16;80.18;98035.13;130430;1268;108861;-78
2022/01/30 08:18:03;;;;;;;6.80;2.70;;;;;;;3.01;80.68;98065.15;130409;1268;108843;-77
2022/01/30 08:21:08;;;;;;;6.60;3.00;;;;;;;2.76;81.16;98068.70;130521;1268;108978;-79
2022/01/30 08:24:16;;;;;;;6.90;2.20;;;;;;;2.45;83.28;98060.30;130273;1268;108948;-80
2022/01/30 08:27:21;;;;;;;8.70;2.60;;;;;;;1.99;84.52;98094.70;130262;1268;109113;-73
2022/01/30 08:30:27;;;;;;;5.20;1.30;;;;;;;1.51;87.66;98108.52;130363;1268;108721;-84
2022/01/30 08:33:33;;;;;;;10.60;3.80;;;;;;;1.32;88.62;98087.04;130485;1268;108078;-85
2022/01/30 08:36:38;;;;;;;4.50;2.10;;;;;;;1.28;89.51;98082.73;130733;1268;107160;-83
2022/01/30 08:39:44;;;;;;;3.20;0.90;;;;;;;1.31;90.03;98087.81;130610;1267;109170;-82
2022/01/30 08:42:52;;;;;;;3.30;1.30;;;;;;;1.40;90.28;98091.73;130572;1268;108802;-87
2022/01/30 08:45:59;;;;;;;3.30;1.60;;;;;;;1.43;90.53;98099.27;130563;1268;108786;-77
2022/01/30 08:49:05;;;;;;;4.60;1.60;;;;;;;1.41;90.74;98101.06;130575;1265;108914;-81
2022/01/30 08:52:16;;;;;;;7.70;1.90;;;;;;;1.50;90.99;98101.46;130611;1268;109087;-78
2022/01/30 08:55:25;;;;;;;7.00;2.10;;;;;;;1.57;90.37;98102.81;130486;1268;108806;-80
2022/01/30 08:58:33;;;;;;;7.50;3.70;;;;;;;1.65;90.21;98105.25;130407;1268;108961;-78
2022/01/30 09:01:43;;;;;;;6.50;1.60;;;;;;;1.78;88.93;98095.71;130483;1268;108770;-74
2022/01/30 09:04:48;;;;;;;5.40;1.80;;;;;;;1.99;89.78;98096.42;130636;1268;109437;-80
2022/01/30 09:07:54;;;;;;;16.30;7.00;;;;;;;2.21;89.20;98101.82;130349;1267;108698;-82
2022/01/30 09:11:00;;;;;;;19.50;9.10;;;;;;;2.42;88.31;98096.41;130542;1268;108681;-80
2022/01/30 09:14:07;;;;;;;8.70;3.80;;;;;;;2.63;87.79;98110.78;130340;1268;108763;-81
2022/01/30 09:17:14;;;;;;;6.80;3.50;;;;;;;2.80;87.43;98096.63;130350;1268;107961;-80
2022/01/30 09:20:20;;;;;;;19.00;8.90;;;;;;;3.00;87.31;98088.10;130295;1268;108836;-82
2022/01/30 09:23:26;;;;;;;14.30;5.80;;;;;;;3.10;86.50;98094.34;130403;1268;108857;-82
2022/01/30 09:26:31;;;;;;;10.60;4.20;;;;;;;3.15;86.41;98097.71;130611;1268;109001;-79
2022/01/30 09:29:39;;;;;;;72.20;33.20;;;;;;;3.17;86.13;98107.23;130550;1267;108805;-78
2022/01/30 09:32:44;;;;;;;30.20;13.00;;;;;;;3.24;86.02;98099.69;130366;1268;108751;-78
2022/01/30 09:35:50;;;;;;;52.60;26.40;;;;;;;3.31;85.67;98101.89;130674;1268;108703;-77
2022/01/30 09:38:55;;;;;;;41.60;17.90;;;;;;;3.30;85.44;98091.08;130738;1267;106749;-78
2022/01/30 09:42:00;;;;;;;31.60;14.90;;;;;;;3.27;85.24;98090.55;130291;1270;108744;-77
2022/01/30 09:45:07;;;;;;;34.50;14.00;;;;;;;3.27;85.08;98088.04;130418;1268;108832;-80
2022/01/30 09:48:13;;;;;;;20.10;9.10;;;;;;;3.30;84.89;98083.50;130255;1270;108965;-79
2022/01/30 09:51:19;;;;;;;11.90;5.10;;;;;;;3.36;84.52;98081.02;130351;1268;108716;-78
2022/01/30 09:54:24;;;;;;;18.40;8.70;;;;;;;3.35;84.04;98087.64;130281;1268;108843;-76
2022/01/30 09:57:34;;;;;;;13.90;6.30;;;;;;;3.34;84.11;98072.02;130268;1268;108941;-76
2022/01/30 10:00:42;;;;;;;14.80;7.40;;;;;;;3.37;84.08;98070.70;130215;1270;108709;-76
2022/01/30 10:03:49;;;;;;;8.70;4.00;;;;;;;3.38;83.81;98074.43;130472;1268;109003;-81
2022/01/30 10:07:04;;;;;;;10.00;3.00;;;;;;;3.39;83.93;98081.02;130340;1269;108815;-80
2022/01/30 10:10:11;;;;;;;12.90;5.70;;;;;;;3.38;84.06;98062.30;130383;1268;108923;-82
2022/01/30 10:13:17;;;;;;;6.90;2.50;;;;;;;3.40;84.13;98061.06;130672;1268;108656;-81
2022/01/30 10:16:22;;;;;;;11.00;4.30;;;;;;;3.37;84.47;98058.38;130479;1268;109973;-84
2022/01/30 10:19:28;;;;;;;39.50;23.10;;;;;;;3.34;84.79;98054.72;130620;1268;108753;-86
2022/01/30 10:22:35;;;;;;;26.40;12.60;;;;;;;3.35;84.96;98069.02;130451;1268;108520;-83
2022/01/30 10:25:52;;;;;;;32.80;12.70;;;;;;;3.32;84.78;98053.13;130418;1268;108938;-82
2022/01/30 10:28:58;;;;;;;18.00;6.30;;;;;;;3.32;85.35;98072.84;130559;1268;107554;-81
2022/01/30 10:32:06;;;;;;;27.10;10.50;;;;;;;3.29;85.36;98077.86;130466;1268;108669;-78
2022/01/30 10:35:12;;;;;;;33.20;12.60;;;;;;;3.28;85.78;98078.65;130503;1268;108751;-79
2022/01/30 10:38:25;;;;;;;50.70;20.60;;;;;;;3.22;86.17;98082.27;130679;1268;108831;-85
2022/01/30 10:41:41;;;;;;;23.90;10.90;;;;;;;3.26;86.05;98095.25;130404;1269;109091;-85
2022/01/30 10:44:50;;;;;;;18.60;8.10;;;;;;;3.26;86.30;98103.85;130639;1268;108732;-78
2022/01/30 10:48:10;;;;;;;11.70;5.20;;;;;;;3.33;85.92;98093.30;130687;1268;107553;-84
2022/01/30 10:51:16;;;;;;;6.00;2.40;;;;;;;3.38;86.23;98097.85;130784;1268;107758;-80
2022/01/30 10:54:25;;;;;;;8.40;3.60;;;;;;;3.39;85.91;98095.09;130573;1267;107779;-82
2022/01/30 10:57:39;;;;;;;12.30;6.10;;;;;;;3.43;85.95;98091.35;130951;1268;107345;-82
2022/01/30 11:00:50;;;;;;;10.40;4.80;;;;;;;3.44;85.85;98088.80;130504;1268;108863;-84
2022/01/30 11:04:00;;;;;;;9.60;3.10;;;;;;;3.50;85.96;98072.31;130668;1267;108818;-81
2022/01/30 11:07:07;;;;;;;8.90;3.20;;;;;;;3.55;85.87;98074.06;130608;1267;109068;-81
2022/01/30 11:10:23;;;;;;;9.50;3.60;;;;;;;3.53;85.88;98059.70;130424;1268;108747;-79
2022/01/30 11:13:33;;;;;;;9.50;2.70;;;;;;;3.51;85.92;98060.83;130273;1268;107732;-81
2022/01/30 11:20:05;;;;;;;10.00;3.50;;;;;;;3.47;86.45;98088.45;130395;1268;107313;-77
2022/01/30 11:23:12;;;;;;;10.30;3.30;;;;;;;3.41;87.15;98111.61;130315;1268;108895;-81
2022/01/30 11:26:18;;;;;;;10.30;2.60;;;;;;;3.28;88.20;98142.63;130429;1270;109041;-78
2022/01/30 11:29:24;;;;;;;17.90;5.00;;;;;;;3.11;88.73;98142.80;130331;1268;108823;-79
2022/01/30 11:32:29;;;;;;;18.20;5.50;;;;;;;3.05;88.89;98162.86;130373;1268;108897;-78
2022/01/30 11:35:35;;;;;;;12.00;3.60;;;;;;;2.92;89.97;98164.36;130791;1268;108853;-76
2022/01/30 11:38:42;;;;;;;17.60;7.00;;;;;;;2.81;89.93;98185.20;130459;1267;108841;-76
2022/01/30 11:42:12;;;;;;;10.20;4.00;;;;;;;2.76;90.16;98189.32;131147;1268;108994;-73
2022/01/30 11:45:24;;;;;;;12.30;4.60;;;;;;;2.80;90.56;98183.91;130597;1267;107636;-74
2022/01/30 11:48:30;;;;;;;10.50;5.00;;;;;;;2.88;91.01;98174.80;130315;1268;108463;-76
2022/01/30 11:51:50;;;;;;;11.10;5.50;;;;;;;2.99;90.54;98182.84;130273;1267;109200;-75
2022/01/30 11:54:57;;;;;;;9.00;3.40;;;;;;;3.13;90.07;98185.61;130942;1268;107638;-80
2022/01/30 11:58:03;;;;;;;8.90;3.10;;;;;;;3.25;89.93;98193.06;130425;1268;109459;-80
2022/01/30 12:01:34;;;;;;;8.50;3.50;;;;;;;3.24;89.71;98187.74;130693;1267;108781;-83
2022/01/30 12:04:55;;;;;;;8.50;3.40;;;;;;;3.32;89.27;98200.20;132010;1268;108742;-80
2022/01/30 12:08:01;;;;;;;3.80;2.00;;;;;;;3.31;89.14;98205.55;130393;1267;108773;-82
2022/01/30 12:11:26;;;;;;;4.70;2.00;;;;;;;3.31;89.62;98204.71;130820;1267;108648;-84
2022/01/30 12:14:46;;;;;;;5.20;2.80;;;;;;;3.26;89.35;98203.64;130675;1267;107308;-81
2022/01/30 12:17:52;;;;;;;7.40;3.20;;;;;;;3.24;90.07;98205.23;130453;1269;108423;-82
2022/01/30 12:21:08;;;;;;;6.50;2.40;;;;;;;3.21;89.86;98206.31;130618;1268;108736;-85
2022/01/30 12:24:27;;;;;;;8.30;4.20;;;;;;;3.24;89.79;98220.55;130687;1267;107411;-88
2022/01/30 12:27:49;;;;;;;12.40;6.20;;;;;;;3.24;89.30;98218.24;130504;1269;107204;-77
2022/01/30 12:30:55;;;;;;;63.70;25.60;;;;;;;3.17;89.55;98239.15;130643;1268;108807;-81
2022/01/30 12:34:02;;;;;;;13.20;6.30;;;;;;;3.14;89.84;98249.30;130651;1268;107790;-78
2022/01/30 12:37:09;;;;;;;13.90;6.40;;;;;;;3.13;89.94;98257.82;130688;1267;108700;-80
2022/01/30 12:40:21;;;;;;;19.50;9.60;;;;;;;3.10;90.29;98262.13;130599;1268;109728;-81
2022/01/30 12:43:31;;;;;;;8.40;5.10;;;;;;;3.13;90.42;98274.16;130400;1268;108714;-80
2022/01/30 12:46:46;;;;;;;20.70;10.10;;;;;;;3.11;90.38;98274.14;130309;1270;108661;-82
2022/01/30 12:49:56;;;;;;;36.20;16.30;;;;;;;3.14;90.35;98279.99;130797;1268;107589;-83
2022/01/30 12:53:02;;;;;;;27.50;14.10;;;;;;;3.12;90.49;98282.75;130669;1268;109734;-80
2022/01/30 12:56:08;;;;;;;12.00;5.60;;;;;;;3.20;90.05;98293.14;130840;1268;107809;-81
2022/01/30 12:59:15;;;;;;;6.70;3.60;;;;;;;3.23;89.87;98317.94;130567;1269;108858;-82
2022/01/30 13:02:21;;;;;;;11.20;3.90;;;;;;;3.25;89.61;98313.08;130685;1268;108784;-82
2022/01/30 13:05:28;;;;;;;5.80;2.80;;;;;;;3.26;89.62;98328.38;130634;1268;109135;-84
2022/01/30 13:08:52;;;;;;;12.20;6.60;;;;;;;3.29;89.86;98346.25;130860;1268;108122;-78
2022/01/30 13:12:00;;;;;;;11.50;4.50;;;;;;;3.29;89.97;98335.31;130495;1268;108954;-80
2022/01/30 13:15:11;;;;;;;14.90;7.60;;;;;;;3.25;89.82;98359.40;130811;1267;108726;-79
2022/01/30 13:18:17;;;;;;;10.80;4.60;;;;;;;3.18;90.42;98359.98;130503;1267;109336;-81
2022/01/30 13:21:29;;;;;;;27.00;14.00;;;;;;;3.09;90.61;98382.63;130813;1268;108768;-78
2022/01/30 13:24:36;;;;;;;20.00;8.20;;;;;;;3.03;91.53;98369.90;130161;1270;107779;-79
2022/01/30 13:27:44;;;;;;;20.30;8.60;;;;;;;3.00;91.96;98374.87;130415;1268;108776;-79
2022/01/30 13:30:49;;;;;;;25.50;11.60;;;;;;;2.99;92.09;98392.02;130507;1268;108776;-79
2022/01/30 13:34:19;;;;;;;27.90;12.60;;;;;;;2.98;92.47;98403.04;130472;1267;108072;-80
2022/01/30 13:37:24;;;;;;;16.30;6.70;;;;;;;2.97;92.31;98405.38;130742;1268;107556;-78
2022/01/30 13:40:51;;;;;;;28.80;12.40;;;;;;;2.99;92.51;98406.58;130641;1268;108862;-78
2022/01/30 13:44:00;;;;;;;9.20;3.50;;;;;;;2.94;93.37;98420.30;130401;1267;108958;-79
2022/01/30 13:47:07;;;;;;;11.10;5.10;;;;;;;2.91;93.30;98417.55;130663;1267;108562;-79
2022/01/30 13:50:18;;;;;;;10.00;3.90;;;;;;;2.95;93.17;98405.03;130494;1268;108740;-78
2022/01/30 13:53:28;;;;;;;13.30;4.20;;;;;;;2.98;93.33;98425.88;130386;1268;108669;-79
2022/01/30 13:56:34;;;;;;;12.40;5.10;;;;;;;3.00;93.17;98434.95;130592;1268;108560;-79
2022/01/30 13:59:40;;;;;;;11.90;3.40;;;;;;;3.05;92.94;98425.18;130792;1268;107745;-77
2022/01/30 14:02:56;;;;;;;12.70;4.50;;;;;;;3.10;92.16;98431.88;130595;1267;108852;-79
2022/01/30 14:06:02;;;;;;;16.00;6.50;;;;;;;3.12;91.94;98448.02;130416;1270;109144;-81
2022/01/30 14:09:12;;;;;;;15.50;5.10;;;;;;;3.15;91.82;98453.70;130632;1270;108829;-82
2022/01/30 14:12:17;;;;;;;12.30;3.50;;;;;;;3.16;91.05;98474.30;130529;1268;108618;-82
2022/01/30 14:15:23;;;;;;;12.40;4.40;;;;;;;3.19;91.14;98453.64;130542;1268;109014;-80
2022/01/30 14:18:34;;;;;;;11.10;3.60;;;;;;;3.22;90.88;98460.27;130725;1268;108762;-76
2022/01/30 14:21:41;;;;;;;25.50;9.90;;;;;;;3.28;90.22;98478.99;130419;1268;108684;-82
2022/01/30 14:24:51;;;;;;;9.50;2.70;;;;;;;3.31;89.35;98480.75;130297;1269;108803;-81
2022/01/30 14:27:58;;;;;;;12.10;4.20;;;;;;;3.36;88.26;98497.55;130406;1268;108735;-81
2022/01/30 14:31:18;;;;;;;12.00;3.30;;;;;;;3.41;88.29;98490.05;130373;1268;109041;-81
2022/01/30 14:34:25;;;;;;;13.40;4.20;;;;;;;3.44;87.23;98509.92;130505;1268;110069;-74
2022/01/30 14:37:31;;;;;;;11.00;4.70;;;;;;;3.47;87.03;98514.54;130352;1270;108354;-80
2022/01/30 14:40:38;;;;;;;12.30;4.30;;;;;;;3.52;86.49;98511.23;130946;1267;108572;-84
2022/01/30 14:43:44;;;;;;;14.10;6.70;;;;;;;3.58;85.31;98542.46;130727;1266;108553;-79
2022/01/30 14:46:52;;;;;;;13.50;4.90;;;;;;;3.62;84.68;98532.23;131076;1267;108873;-82
2022/01/30 14:49:57;;;;;;;17.40;7.20;;;;;;;3.64;84.04;98539.09;130588;1267;109126;-79
2022/01/30 14:53:04;;;;;;;12.70;3.90;;;;;;;3.68;82.59;98553.80;130791;1267;108902;-90
2022/01/30 14:56:09;;;;;;;9.30;2.80;;;;;;;3.74;82.24;98543.86;130803;1268;107613;-86
2022/01/30 14:59:15;;;;;;;19.70;6.00;;;;;;;3.80;82.14;98560.38;130728;1268;109050;-85
2022/01/30 15:02:20;;;;;;;14.80;5.10;;;;;;;3.80;80.50;98564.10;130716;1268;108850;-85
2022/01/30 15:05:26;;;;;;;15.80;5.20;;;;;;;3.83;81.38;98564.41;130660;1267;108757;-81
2022/01/30 15:08:32;;;;;;;16.40;5.00;;;;;;;3.87;79.69;98574.61;130425;1268;108657;-79